Terminal Aerodrome Forecast
Issued by NWS

Home | Current Version | Previous Version | Text Only | Print | Product List | Glossary On
Versions: 1 2 3 4 5 6 7 8 9 10 11 12 13 14 15 16 17
000
FTUS45 KGJT 211120
TAFEGE
TAF
KEGE 211120Z 2112/2212 00000KT P6SM FEW200
     FM211900 25010G17KT P6SM VCSH SCT090 BKN200
     FM220200 12004KT P6SM SCT200
      AMD LTD TO CLD VIS AND WIND TIL 211400=

USA.gov is the U.S. government's official web portal to all federal, state and local government web resources and services.